Time;durP1;ratioP1;P1;durP2;ratioP2;P2;SDS_P1;SDS_P2;PMS_P1;PMS_P2;Temp;Humidity;BMP_temperature;BMP_pressure;BME280_temperature;BME280_humidity;BME280_pressure;Samples;Min_cycle;Max_cycle;Signal;HPM_P1;HPM_P2
2021/12/05 00:18:24;;;;;;;32.70;16.10;;;;;;;-0.35;82.13;99479.86;1765003;80;21037;-75
2021/12/05 00:23:20;;;;;;;35.68;18.95;;;;;;;-0.36;82.07;99471.81;1772452;79;20890;-75
2021/12/05 00:25:47;;;;;;;34.63;18.42;;;;;;;-0.37;82.02;99474.34;1772316;80;21375;-75
2021/12/05 01:03:09;;;;;;;30.68;16.77;;;;;;;-0.41;82.12;99465.84;1689113;84;20880;-75
2021/12/05 01:05:46;;;;;;;31.62;17.25;;;;;;;-0.42;82.06;99467.09;1687232;83;20924;-75
2021/12/05 01:10:56;;;;;;;35.28;18.00;;;;;;;-0.42;82.13;99473.02;1717824;82;20904;-75
2021/12/05 01:15:44;;;;;;;28.70;16.32;;;;;;;-0.43;82.10;99475.13;1709839;83;20947;-74
2021/12/05 01:18:17;;;;;;;31.80;17.23;;;;;;;-0.46;82.11;99476.36;1689203;84;20951;-74
2021/12/05 01:20:53;;;;;;;32.42;17.52;;;;;;;-0.45;82.18;99471.72;1688997;84;20943;-74
2021/12/05 01:23:30;;;;;;;36.30;17.87;;;;;;;-0.45;82.21;99466.64;1711030;82;20951;-74
2021/12/05 01:26:10;;;;;;;30.65;17.45;;;;;;;-0.43;82.20;99467.92;1716305;83;20936;-74
2021/12/05 01:31:33;;;;;;;29.50;17.35;;;;;;;-0.45;82.16;99475.95;1717995;82;20967;-74
2021/12/05 01:36:46;;;;;;;32.08;17.15;;;;;;;-0.47;82.18;99475.94;1717943;83;20967;-74
2021/12/05 01:39:31;;;;;;;32.60;18.32;;;;;;;-0.47;82.20;99469.58;1715613;82;20971;-74
2021/12/05 01:44:36;;;;;;;34.30;17.02;;;;;;;-0.48;82.24;99464.07;1705215;82;20947;-75
2021/12/05 01:47:16;;;;;;;30.32;16.95;;;;;;;-0.46;82.26;99464.94;1682488;83;20931;-75
2021/12/05 01:50:11;;;;;;;32.65;17.07;;;;;;;-0.43;82.26;99466.66;1708926;82;20960;-75
2021/12/05 01:52:10;;;;;;;34.45;17.48;;;;;;;-0.43;82.25;99462.84;1667672;83;20991;-75
2021/12/05 01:54:46;;;;;;;36.17;18.90;;;;;;;-0.43;82.22;99462.84;1716627;82;20970;-75
2021/12/05 01:59:53;;;;;;;40.80;18.35;;;;;;;-0.42;82.22;99468.36;1717746;82;20931;-74
2021/12/05 02:16:00;;;;;;;39.47;18.77;;;;;;;-0.40;82.25;99440.02;1718179;83;20975;-74
2021/12/05 02:29:59;;;;;;;33.35;16.12;;;;;;;-0.39;82.21;99436.65;1717680;82;20943;-74
2021/12/05 02:42:54;;;;;;;40.55;19.62;;;;;;;-0.37;82.32;99439.63;1718055;83;20939;-74
2021/12/05 02:45:14;;;;;;;36.55;18.82;;;;;;;-0.36;82.32;99432.45;1716492;83;20963;-74
2021/12/05 02:47:47;;;;;;;37.10;20.05;;;;;;;-0.35;82.32;99443.04;1708109;82;20991;-74
2021/12/05 02:50:12;;;;;;;36.20;18.95;;;;;;;-0.34;82.31;99445.16;1690570;83;21416;-74
2021/12/05 02:52:41;;;;;;;31.77;16.48;;;;;;;-0.34;82.25;99450.23;1717694;82;20931;-74
2021/12/05 02:55:29;;;;;;;36.38;17.45;;;;;;;-0.35;82.29;99454.47;1716118;82;20998;-74
2021/12/05 02:57:57;;;;;;;37.08;20.05;;;;;;;-0.33;82.28;99453.21;1714710;83;21082;-74
2021/12/05 03:00:38;;;;;;;36.42;20.17;;;;;;;-0.30;82.32;99451.97;1713987;82;21791;-74
2021/12/05 03:03:01;;;;;;;36.53;19.25;;;;;;;-0.28;82.33;99450.71;1707656;83;21739;-74
2021/12/05 03:05:28;;;;;;;35.00;19.07;;;;;;;-0.26;82.36;99449.04;1704177;83;20970;-74
2021/12/05 03:08:00;;;;;;;33.18;18.20;;;;;;;-0.25;82.31;99441.84;1716835;83;20939;-74
2021/12/05 03:10:23;;;;;;;33.08;17.57;;;;;;;-0.25;82.30;99440.16;1716695;83;20927;-74
2021/12/05 03:13:01;;;;;;;45.78;19.07;;;;;;;-0.25;82.28;99450.32;1716933;83;20896;-74
2021/12/05 03:15:28;;;;;;;39.53;19.87;;;;;;;-0.21;82.33;99460.09;1717049;82;20939;-74
2021/12/05 03:17:54;;;;;;;42.15;20.75;;;;;;;-0.20;82.33;99465.19;1717040;83;20931;-74
2021/12/05 03:20:21;;;;;;;;;;;;;;;-0.16;82.36;99471.14;1719558;82;21575;-74
2021/12/05 03:22:50;;;;;;;37.15;20.50;;;;;;;-0.15;82.37;99463.53;1716767;83;20121;-74
2021/12/05 03:25:16;;;;;;;43.10;20.72;;;;;;;-0.14;82.39;99457.62;1717031;83;20991;-74
2021/12/05 03:27:42;;;;;;;36.48;20.37;;;;;;;-0.10;82.38;99463.58;1716959;82;26601;-74
2021/12/05 03:30:13;;;;;;;37.83;20.20;;;;;;;-0.11;82.32;99455.52;1717141;82;20931;-74
2021/12/05 03:32:42;;;;;;;30.82;17.95;;;;;;;-0.11;82.28;99458.91;1710884;82;20898;-74
2021/12/05 03:35:10;;;;;;;38.50;18.65;;;;;;;-0.11;82.34;99458.91;1716972;83;20907;-74
2021/12/05 03:37:36;;;;;;;32.35;18.37;;;;;;;-0.09;82.32;99466.13;1716685;82;20912;-74
2021/12/05 03:40:07;;;;;;;36.63;18.32;;;;;;;-0.07;82.36;99459.79;1689912;84;21523;-74
2021/12/05 03:42:34;;;;;;;38.98;21.82;;;;;;;-0.05;82.33;99456.42;1671423;85;20934;-75
2021/12/05 03:45:03;;;;;;;39.45;20.70;;;;;;;-0.04;82.29;99451.77;1689988;84;20930;-75
2021/12/05 03:47:30;;;;;;;42.08;21.62;;;;;;;-0.04;82.31;99450.50;1671301;85;21521;-75
2021/12/05 03:49:57;;;;;;;37.30;20.20;;;;;;;-0.02;82.29;99454.33;1689864;84;20970;-75
2021/12/05 03:52:29;;;;;;;39.60;21.23;;;;;;;-0.03;82.29;99452.20;1660348;86;20969;-75
2021/12/05 03:54:55;;;;;;;37.35;20.12;;;;;;;-0.04;82.29;99459.39;1686950;84;21446;-75
2021/12/05 03:57:21;;;;;;;45.43;21.55;;;;;;;-0.01;82.32;99464.92;1671480;85;20966;-75
2021/12/05 03:59:47;;;;;;;37.67;19.77;;;;;;;-0.01;82.30;99470.85;1692736;83;20910;-75
2021/12/05 04:02:14;;;;;;;37.25;19.07;;;;;;;0.01;82.31;99473.38;1688432;85;20945;-75
2021/12/05 04:04:41;;;;;;;38.78;20.35;;;;;;;0.04;82.36;99475.09;1686764;84;21407;-75
2021/12/05 04:07:08;;;;;;;40.95;21.62;;;;;;;0.05;82.32;99471.71;1718369;83;21432;-75
2021/12/05 04:09:35;;;;;;;;;;;;;;;0.06;82.31;99462.83;1702199;84;20921;-75
2021/12/05 04:12:03;;;;;;;45.30;21.60;;;;;;;0.08;82.32;99462.84;1718936;82;20113;-75
2021/12/05 04:14:42;;;;;;;43.05;20.82;;;;;;;0.09;82.32;99469.63;1718856;83;21538;-75
2021/12/05 04:17:11;;;;;;;44.35;23.22;;;;;;;0.10;82.33;99466.25;1719128;83;21554;-75
2021/12/05 04:19:39;;;;;;;43.33;21.93;;;;;;;0.11;82.33;99462.86;1718754;83;21475;-75
2021/12/05 04:22:07;;;;;;;46.53;21.15;;;;;;;0.10;82.29;99461.16;1718942;82;20970;-75
2021/12/05 04:24:35;;;;;;;35.38;19.23;;;;;;;0.08;82.26;99466.23;1718968;83;20935;-75
2021/12/05 04:27:03;;;;;;;40.63;20.48;;;;;;;0.09;82.31;99467.08;1718840;83;20963;-75
2021/12/05 04:29:32;;;;;;;37.63;19.48;;;;;;;0.10;82.29;99469.64;1718865;83;20896;-75
2021/12/05 04:32:00;;;;;;;39.15;20.02;;;;;;;0.10;82.26;99468.36;1704298;83;21523;-74
2021/12/05 04:34:26;;;;;;;45.05;22.80;;;;;;;0.12;82.28;99464.56;1703984;83;20966;-74
2021/12/05 04:36:59;;;;;;;44.75;22.17;;;;;;;0.15;82.31;99466.71;1718875;83;23519;-74
2021/12/05 04:39:26;;;;;;;51.42;22.75;;;;;;;0.16;82.29;99467.56;1718402;83;20967;-74
2021/12/05 04:41:53;;;;;;;46.45;23.42;;;;;;;0.17;82.28;99467.57;1717782;83;21464;-74
2021/12/05 04:44:22;;;;;;;41.55;22.10;;;;;;;0.18;82.30;99472.23;1693952;83;21567;-74
2021/12/05 04:46:49;;;;;;;44.25;23.25;;;;;;;0.20;82.27;99470.56;1718387;83;21511;-74
2021/12/05 04:49:16;;;;;;;40.92;20.55;;;;;;;0.18;82.24;99469.70;1718229;83;21476;-74
2021/12/05 04:51:45;;;;;;;40.95;20.57;;;;;;;0.19;82.22;99473.94;1718835;82;20959;-74
2021/12/05 04:54:16;;;;;;;38.83;19.75;;;;;;;0.18;82.24;99478.17;1718547;82;21432;-74
2021/12/05 04:56:44;;;;;;;43.42;20.65;;;;;;;0.19;82.27;99490.05;1718856;83;21459;-74
2021/12/05 04:59:16;;;;;;;42.55;22.48;;;;;;;0.19;82.25;99488.77;1718624;83;21519;-74
2021/12/05 05:01:42;;;;;;;39.78;20.25;;;;;;;0.19;82.27;99491.31;1716392;83;21574;-74
2021/12/05 05:04:23;;;;;;;43.30;20.15;;;;;;;0.20;82.30;99500.64;1703368;83;21452;-74
2021/12/05 05:06:44;;;;;;;38.88;20.05;;;;;;;0.22;82.33;99508.28;1703473;83;21774;-74
2021/12/05 05:09:10;;;;;;;41.10;19.27;;;;;;;0.21;82.35;99508.70;1690227;84;21423;-74
2021/12/05 05:11:38;;;;;;;43.28;22.10;;;;;;;0.22;82.32;99512.09;1671503;85;21402;-74
2021/12/05 05:14:04;;;;;;;40.73;20.50;;;;;;;0.23;82.38;99519.73;1690086;84;21427;-74
2021/12/05 05:16:31;;;;;;;38.30;19.10;;;;;;;0.24;82.39;99520.16;1671689;85;21356;-74
2021/12/05 05:18:59;;;;;;;39.25;21.48;;;;;;;0.25;82.39;99524.83;1716835;83;21381;-74
2021/12/05 05:21:40;;;;;;;38.95;19.90;;;;;;;0.26;82.42;99526.11;1717101;83;21778;-75
2021/12/05 05:40:18;;;;;;;37.75;19.02;;;;;;;0.24;82.49;99544.31;1660518;86;20942;-74
2021/12/05 05:50:39;;;;;;;35.33;18.87;;;;;;;0.26;82.50;99549.41;1645290;85;20122;-75
2021/12/05 05:53:07;;;;;;;41.98;18.95;;;;;;;0.25;82.53;99555.33;1664201;84;21805;-75
2021/12/05 05:55:35;;;;;;;39.20;20.95;;;;;;;0.25;82.50;99557.45;1690058;84;20933;-74
2021/12/05 05:58:12;;;;;;;43.40;22.10;;;;;;;0.24;82.54;99550.66;1671551;85;20957;-74
2021/12/05 06:00:50;;;;;;;47.38;21.48;;;;;;;0.25;82.55;99556.61;1694691;83;21003;-74
2021/12/05 06:03:22;;;;;;;44.93;21.62;;;;;;;0.25;82.59;99557.45;1681713;85;21410;-74
2021/12/05 06:05:59;;;;;;;38.50;20.82;;;;;;;0.23;82.53;99555.73;1687854;85;20913;-74
2021/12/05 06:08:28;;;;;;;38.28;20.32;;;;;;;0.21;82.57;99553.60;1717424;83;20885;-74
2021/12/05 06:11:01;;;;;;;37.48;19.15;;;;;;;0.21;82.58;99559.95;1717758;82;20873;-74
2021/12/05 06:13:29;;;;;;;37.70;20.23;;;;;;;0.20;82.60;99559.11;1689274;84;21335;-74
2021/12/05 06:15:56;;;;;;;42.00;21.77;;;;;;;0.19;82.58;99566.30;1664741;84;20863;-74
2021/12/05 06:18:24;;;;;;;36.25;19.95;;;;;;;0.18;82.56;99572.64;1677721;84;20969;-74
2021/12/05 06:20:53;;;;;;;38.25;19.40;;;;;;;0.18;82.63;99570.95;1718519;82;20940;-74
2021/12/05 06:23:19;;;;;;;35.10;19.42;;;;;;;0.18;82.67;99568.41;1696849;84;20949;-74
2021/12/05 06:25:50;;;;;;;39.45;20.27;;;;;;;0.21;82.67;99573.52;1697075;84;21398;-74
2021/12/05 06:28:23;;;;;;;34.73;19.32;;;;;;;0.20;82.65;99577.31;1718762;83;20958;-74
2021/12/05 06:39:18;;;;;;;41.85;21.15;;;;;;;0.18;82.68;99592.97;1712928;83;21043;-74
2021/12/05 06:46:48;;;;;;;33.78;18.87;;;;;;;0.13;82.67;99592.08;1655404;86;20929;-76
2021/12/05 06:49:15;;;;;;;40.60;20.50;;;;;;;0.10;82.65;99595.86;1647814;85;20936;-76
2021/12/05 06:51:41;;;;;;;36.50;19.00;;;;;;;0.10;82.69;99599.67;1637041;86;20940;-76
2021/12/05 06:54:08;;;;;;;40.60;20.30;;;;;;;0.09;82.71;99604.32;1661476;86;21005;-77
2021/12/05 06:56:34;;;;;;;36.68;19.52;;;;;;;0.09;82.74;99606.45;1656365;85;20992;-75
2021/12/05 06:59:01;;;;;;;34.20;18.02;;;;;;;0.10;82.75;99608.56;1630054;86;21042;-74
2021/12/05 07:01:27;;;;;;;40.25;18.98;;;;;;;0.10;82.74;99611.96;1654346;85;20964;-75
2021/12/05 07:03:55;;;;;;;32.83;17.85;;;;;;;0.09;82.75;99614.07;1655606;86;24243;-75
2021/12/05 07:06:26;;;;;;;34.53;19.15;;;;;;;0.08;82.72;99608.97;1633381;87;20916;-75
2021/12/05 07:08:53;;;;;;;38.75;20.25;;;;;;;0.09;82.76;99612.80;1633488;87;20968;-75
2021/12/05 07:11:26;;;;;;;40.03;21.75;;;;;;;0.09;82.80;99617.03;1645655;86;20904;-75
2021/12/05 07:19:24;;;;;;;39.10;20.37;;;;;;;0.06;82.79;99620.39;1652431;85;20970;-75
2021/12/05 07:21:54;;;;;;;46.77;21.87;;;;;;;0.03;82.82;99630.52;1657274;85;20949;-75
2021/12/05 07:40:24;;;;;;;44.40;20.80;;;;;;;0.03;82.87;99640.69;1660447;85;20957;-75
2021/12/05 07:42:47;;;;;;;43.05;21.12;;;;;;;0.03;82.92;99647.05;1658952;85;20924;-75
2021/12/05 07:45:20;;;;;;;;;;;;;;;0.02;82.90;99644.48;1650468;85;20952;-75
2021/12/05 07:47:50;;;;;;;42.45;20.90;;;;;;;0.00;82.93;99647.86;1660001;85;20127;-74
2021/12/05 07:50:15;;;;;;;42.00;20.80;;;;;;;-0.02;82.92;99653.38;1657977;85;21049;-75
2021/12/05 07:52:45;;;;;;;42.00;21.02;;;;;;;-0.02;82.96;99653.38;1657342;85;21000;-75
2021/12/05 07:55:26;;;;;;;43.28;21.52;;;;;;;-0.01;82.98;99657.63;1633074;86;20944;-76
2021/12/05 08:00:33;;;;;;;39.45;21.27;;;;;;;0.00;82.94;99656.76;1659375;85;20874;-75
2021/12/05 08:16:40;;;;;;;37.38;20.72;;;;;;;0.05;83.07;99662.31;1657266;84;20966;-73
2021/12/05 08:19:04;;;;;;;38.70;21.25;;;;;;;0.06;83.10;99664.02;1653074;86;21150;-73
2021/12/05 08:21:32;;;;;;;43.00;21.90;;;;;;;0.06;83.02;99667.83;1653630;85;21118;-73
2021/12/05 08:23:58;;;;;;;45.00;23.70;;;;;;;0.06;83.02;99671.64;1654826;86;21104;-74
2021/12/05 08:26:31;;;;;;;47.83;23.35;;;;;;;0.07;83.03;99674.20;1654646;84;21454;-74
2021/12/05 08:29:20;;;;;;;42.62;22.60;;;;;;;0.05;83.03;99669.52;1648890;85;21144;-74
2021/12/05 08:31:43;;;;;;;43.42;23.60;;;;;;;0.06;83.06;99670.37;1649644;85;21095;-74
2021/12/05 08:42:32;;;;;;;56.08;27.60;;;;;;;0.07;83.00;99672.92;1666158;84;21113;-73
2021/12/05 08:45:15;;;;;;;51.83;25.32;;;;;;;0.06;83.04;99677.99;1656474;84;21081;-74
2021/12/05 09:23:32;;;;;;;49.58;24.92;;;;;;;0.14;83.25;99704.34;1774315;80;20125;-76
2021/12/05 09:39:43;;;;;;;53.63;29.60;;;;;;;0.18;83.28;99715.84;1787896;80;20894;-74
2021/12/05 10:27:16;;;;;;;55.48;29.72;;;;;;;0.39;83.43;99734.30;1749137;80;25293;-74
2021/12/05 10:35:55;;;;;;;61.15;30.57;;;;;;;0.43;83.48;99742.81;1757779;80;21063;-74
2021/12/05 10:38:17;;;;;;;52.35;28.98;;;;;;;0.45;83.51;99748.77;1758585;80;21023;-75
2021/12/05 10:41:00;;;;;;;56.10;29.80;;;;;;;0.47;83.53;99741.59;1759690;81;20889;-74
2021/12/05 10:43:26;;;;;;;52.70;30.05;;;;;;;0.50;83.53;99742.89;1756126;81;21035;-74
2021/12/05 10:46:03;;;;;;;60.38;31.80;;;;;;;0.53;83.52;99739.08;1759530;81;20897;-74
2021/12/05 10:48:45;;;;;;;55.58;29.15;;;;;;;0.51;83.42;99744.59;1759244;81;20889;-74
2021/12/05 10:51:15;;;;;;;56.50;29.77;;;;;;;0.53;83.54;99742.89;1752236;80;20879;-74
2021/12/05 10:53:53;;;;;;;59.53;30.95;;;;;;;0.58;83.59;99749.30;1738046;81;20921;-74
2021/12/05 10:56:38;;;;;;;57.75;31.27;;;;;;;0.60;83.54;99750.17;1726853;80;20892;-74
2021/12/05 10:59:16;;;;;;;;;;;;;;;0.62;83.59;99758.25;1731168;81;20890;-74
2021/12/05 11:01:58;;;;;;;54.47;29.07;;;;;;;0.68;83.68;99747.28;1745098;80;20423;-75
2021/12/05 11:04:31;;;;;;;54.48;31.40;;;;;;;0.71;83.61;99751.55;1751593;80;20905;-74
2021/12/05 11:07:13;;;;;;;55.95;30.97;;;;;;;0.74;83.60;99751.16;1754935;80;20877;-74
2021/12/05 11:09:47;;;;;;;61.53;31.48;;;;;;;0.78;83.54;99752.05;1745856;81;20944;-74
2021/12/05 11:12:24;;;;;;;53.70;29.80;;;;;;;0.81;83.56;99754.61;1757807;81;21340;-74
2021/12/05 11:15:05;;;;;;;50.60;28.85;;;;;;;0.83;83.62;99748.70;1758305;81;20927;-74
2021/12/05 11:17:37;;;;;;;51.50;29.05;;;;;;;0.89;83.63;99755.13;1745661;81;20880;-74
2021/12/05 11:20:29;;;;;;;48.92;29.40;;;;;;;0.92;83.65;99756.42;1757846;81;20872;-74
2021/12/05 11:22:50;;;;;;;51.53;29.60;;;;;;;0.98;83.66;99758.17;1732732;81;20880;-75
2021/12/05 11:25:25;;;;;;;57.50;30.82;;;;;;;0.98;83.53;99764.53;1771938;80;21398;-74
2021/12/05 11:27:54;;;;;;;47.73;26.82;;;;;;;1.01;83.62;99767.11;1778539;80;20850;-76
2021/12/05 11:30:33;;;;;;;51.33;28.10;;;;;;;1.01;83.59;99770.92;1764989;79;20919;-76
2021/12/05 11:33:08;;;;;;;48.95;29.37;;;;;;;1.03;83.64;99773.06;1773772;79;21007;-77
2021/12/05 11:35:45;;;;;;;54.80;31.05;;;;;;;1.07;83.68;99770.95;1765414;79;20923;-73
2021/12/05 11:38:27;;;;;;;62.13;32.30;;;;;;;1.07;83.61;99773.49;1759627;80;20998;-74
2021/12/05 11:41:06;;;;;;;58.55;30.77;;;;;;;1.06;83.58;99780.70;1752543;79;21046;-74
2021/12/05 11:43:46;;;;;;;55.25;29.57;;;;;;;1.07;83.63;99786.22;1771888;80;21076;-72
2021/12/05 11:46:28;;;;;;;58.73;32.20;;;;;;;1.05;83.63;99790.45;1771835;80;21024;-73
2021/12/05 11:49:13;;;;;;;59.90;31.80;;;;;;;1.08;83.68;99785.80;1748284;81;21123;-72
2021/12/05 11:51:53;;;;;;;59.70;31.02;;;;;;;1.07;83.64;99777.31;1720854;82;21517;-73
2021/12/05 11:54:37;;;;;;;59.80;32.70;;;;;;;1.05;83.63;99782.81;1748048;80;21015;-72
2021/12/05 11:57:09;;;;;;;63.95;33.70;;;;;;;1.04;83.65;99782.38;1756355;80;21135;-72
2021/12/05 11:59:43;;;;;;;60.88;33.05;;;;;;;1.03;83.60;99792.16;1741891;80;21106;-73
2021/12/05 12:02:15;;;;;;;56.40;31.85;;;;;;;1.03;83.69;99799.80;1750133;80;21640;-72
2021/12/05 12:05:14;;;;;;;63.73;35.00;;;;;;;1.03;83.69;99804.88;1748877;80;21033;-72
2021/12/05 12:07:46;;;;;;;56.85;32.55;;;;;;;1.02;83.68;99802.33;1713830;81;21511;-72
2021/12/05 12:10:18;;;;;;;55.78;32.93;;;;;;;0.98;83.66;99811.20;1719173;81;21131;-72
2021/12/05 12:12:54;;;;;;;58.58;33.95;;;;;;;0.95;83.69;99807.36;1764232;80;21092;-72
2021/12/05 12:15:22;;;;;;;60.88;33.48;;;;;;;0.95;83.72;99809.90;1765552;78;25450;-73
2021/12/05 12:17:52;;;;;;;57.25;31.37;;;;;;;0.92;83.69;99806.47;1761866;79;21021;-72
2021/12/05 12:20:23;;;;;;;58.10;32.85;;;;;;;0.91;83.73;99803.49;1776018;78;21016;-73
2021/12/05 12:22:51;;;;;;;64.22;36.05;;;;;;;0.91;83.74;99812.40;1771160;79;20944;-73
2021/12/05 12:25:22;;;;;;;65.52;37.65;;;;;;;0.89;83.71;99812.38;1760487;80;20900;-73
2021/12/05 12:27:50;;;;;;;64.58;37.08;;;;;;;0.89;83.74;99812.80;1769000;79;21098;-73
2021/12/05 12:30:24;;;;;;;67.35;36.83;;;;;;;0.88;83.76;99811.95;1776380;80;20944;-73
2021/12/05 12:32:52;;;;;;;69.07;37.42;;;;;;;0.87;83.74;99810.66;1732735;81;20888;-74
2021/12/05 12:35:26;;;;;;;72.97;38.75;;;;;;;0.86;83.72;99814.05;1768637;80;21000;-75
2021/12/05 12:38:10;;;;;;;78.28;40.85;;;;;;;0.84;83.74;99809.36;1770408;80;20886;-71
2021/12/05 12:41:00;;;;;;;87.70;45.52;;;;;;;0.83;83.77;99803.41;1726430;82;21030;-75
2021/12/05 12:43:49;;;;;;;95.15;48.02;;;;;;;0.80;83.72;99805.92;1777532;78;21032;-73
2021/12/05 12:46:21;;;;;;;93.62;49.83;;;;;;;0.76;83.71;99799.52;1769649;79;21044;-73
2021/12/05 12:48:52;;;;;;;98.03;50.28;;;;;;;0.72;83.75;99791.42;1766782;79;21022;-73
2021/12/05 12:51:38;;;;;;;99.85;50.28;;;;;;;0.71;83.80;99797.34;1770498;80;20877;-73
2021/12/05 12:54:10;;;;;;;109.25;57.55;;;;;;;0.67;83.77;99799.00;1768563;79;20917;-73
2021/12/05 12:56:40;;;;;;;116.95;73.72;;;;;;;0.66;83.80;99799.84;1786188;80;20889;-73
2021/12/05 12:59:13;;;;;;;102.92;52.03;;;;;;;0.63;83.82;99799.80;1766735;79;20826;-73
2021/12/05 13:04:36;;;;;;;93.62;49.75;;;;;;;0.60;83.80;99804.44;1761130;80;25129;-74
2021/12/05 13:12:51;;;;;;;97.72;50.88;;;;;;;0.55;83.85;99816.67;1771765;78;21113;-73
2021/12/05 13:15:37;;;;;;;85.62;46.08;;;;;;;0.55;83.85;99817.52;1775905;79;20974;-74
2021/12/05 13:18:13;;;;;;;87.40;46.08;;;;;;;0.54;83.86;99817.09;1789011;79;20948;-74
2021/12/05 13:20:50;;;;;;;93.37;47.20;;;;;;;0.54;83.86;99828.95;1754497;79;21050;-74
2021/12/05 13:23:39;;;;;;;79.60;42.53;;;;;;;0.53;83.89;99823.43;1769937;79;21549;-73
2021/12/05 13:26:23;;;;;;;88.25;46.37;;;;;;;0.53;83.90;99833.60;1737134;81;21054;-74
2021/12/05 13:29:16;;;;;;;82.22;46.02;;;;;;;0.55;83.90;99837.02;1750879;81;21025;-74
2021/12/05 13:31:50;;;;;;;78.78;42.35;;;;;;;0.51;83.82;99842.52;1776199;78;21503;-72
2021/12/05 13:34:36;;;;;;;83.60;43.50;;;;;;;0.51;83.90;99845.06;1779614;78;21560;-73
2021/12/05 13:37:13;;;;;;;81.05;41.90;;;;;;;0.51;83.89;99856.51;1772567;78;21109;-74
2021/12/05 13:40:08;;;;;;;78.30;39.90;;;;;;;0.54;83.92;99854.39;1774418;79;21030;-74
2021/12/05 13:42:48;;;;;;;77.25;40.98;;;;;;;0.52;83.88;99864.99;1778140;79;21056;-74
2021/12/05 13:45:29;;;;;;;82.15;42.15;;;;;;;0.51;83.89;99865.83;1769835;78;21119;-74
2021/12/05 13:48:04;;;;;;;71.87;40.38;;;;;;;0.50;83.91;99872.60;1736192;81;21569;-74
2021/12/05 13:50:44;;;;;;;82.60;44.08;;;;;;;0.50;83.89;99870.06;1749636;80;21097;-74
2021/12/05 13:53:22;;;;;;;78.30;42.58;;;;;;;0.49;83.91;99868.77;1754416;79;21086;-73
2021/12/05 13:56:02;;;;;;;81.60;40.58;;;;;;;0.48;83.90;99871.73;1764299;79;21472;-74
2021/12/05 13:58:44;;;;;;;80.05;42.08;;;;;;;0.48;83.94;99875.96;1745383;79;21495;-74
2021/12/05 14:04:10;;;;;;;75.13;42.90;;;;;;;0.49;83.87;99878.52;1844705;76;23372;-74
2021/12/05 14:06:53;;;;;;;81.63;41.45;;;;;;;0.44;83.92;99883.97;1808628;77;20902;-74
2021/12/05 14:09:40;;;;;;;77.53;42.50;;;;;;;0.44;83.95;99888.20;1803612;77;21509;-74
2021/12/05 14:12:24;;;;;;;84.42;43.38;;;;;;;0.43;83.97;99894.12;1804279;77;20874;-74
2021/12/05 14:14:54;;;;;;;68.35;38.13;;;;;;;0.42;83.95;99907.25;1773955;78;20865;-74
2021/12/05 14:17:27;;;;;;;81.28;42.53;;;;;;;0.42;83.97;99909.80;1780717;77;21444;-74
2021/12/05 14:19:58;;;;;;;79.15;40.33;;;;;;;0.43;83.97;99909.37;1775075;78;21346;-73
2021/12/05 14:22:29;;;;;;;71.20;38.53;;;;;;;0.43;83.98;99912.78;1778417;78;21326;-74
2021/12/05 14:24:59;;;;;;;75.97;42.35;;;;;;;0.43;83.96;99915.32;1774544;78;20963;-74
2021/12/05 14:27:31;;;;;;;75.80;39.95;;;;;;;0.41;83.95;99918.26;1783029;78;21410;-74
2021/12/05 14:29:59;;;;;;;69.75;37.90;;;;;;;0.41;83.96;99918.26;1775038;78;20933;-74
2021/12/05 14:32:30;;;;;;;72.08;39.15;;;;;;;0.42;83.98;99917.84;1750175;80;21370;-74
2021/12/05 14:35:10;;;;;;;75.85;40.08;;;;;;;0.43;83.97;99922.09;1769480;79;20900;-74
2021/12/05 14:37:39;;;;;;;72.92;38.30;;;;;;;0.41;83.95;99919.53;1768253;78;20931;-74
2021/12/05 14:40:14;;;;;;;63.08;36.23;;;;;;;0.42;84.00;99923.78;1738267;81;21346;-74
2021/12/05 14:42:45;;;;;;;74.42;39.08;;;;;;;0.40;83.99;99924.17;1764978;79;20921;-74
2021/12/05 14:45:22;;;;;;;67.22;37.55;;;;;;;0.41;84.02;99932.25;1765838;79;21819;-74
2021/12/05 14:47:51;;;;;;;65.92;36.28;;;;;;;0.42;84.04;99933.09;1756779;79;21393;-74
2021/12/05 14:50:24;;;;;;;68.15;37.80;;;;;;;0.43;84.07;99945.84;1772119;79;20913;-74
2021/12/05 14:53:00;;;;;;;65.65;36.80;;;;;;;0.43;84.02;99945.84;1755711;79;20952;-74
2021/12/05 14:55:27;;;;;;;65.20;36.60;;;;;;;0.43;84.06;99944.56;1746259;79;21019;-74
2021/12/05 14:58:04;;;;;;;64.27;35.23;;;;;;;0.44;84.07;99959.41;1744710;79;21091;-74
2021/12/05 15:00:38;;;;;;;61.05;34.53;;;;;;;0.44;84.06;99959.41;1751259;79;21505;-74
2021/12/05 15:03:09;;;;;;;69.10;37.07;;;;;;;0.44;84.06;99961.95;1756899;79;21576;-74
2021/12/05 15:05:38;;;;;;;58.28;34.33;;;;;;;0.44;84.07;99966.62;1762869;79;21532;-74
2021/12/05 15:08:10;;;;;;;68.28;35.38;;;;;;;0.45;84.09;99972.56;1757561;79;21452;-74
2021/12/05 15:10:41;;;;;;;66.20;35.45;;;;;;;0.46;84.10;99977.67;1756675;79;21472;-74
2021/12/05 15:13:09;;;;;;;65.42;36.35;;;;;;;0.46;84.11;99981.48;1755255;79;21469;-74
2021/12/05 15:15:36;;;;;;;67.22;34.65;;;;;;;0.48;84.12;99983.64;1768360;79;21016;-74
2021/12/05 15:18:03;;;;;;;65.45;35.33;;;;;;;0.49;84.13;99988.30;1750773;79;21571;-74
2021/12/05 15:20:33;;;;;;;58.95;32.95;;;;;;;0.49;84.14;99983.22;1756627;79;21429;-74
2021/12/05 15:23:07;;;;;;;64.25;35.13;;;;;;;0.50;84.15;99987.47;1767108;79;22284;-74
2021/12/05 15:25:37;;;;;;;67.55;35.58;;;;;;;0.52;84.16;99989.62;1758821;79;22205;-74
2021/12/05 15:28:06;;;;;;;62.75;35.38;;;;;;;0.51;84.15;99990.45;1760254;79;21468;-74
2021/12/05 15:30:43;;;;;;;66.17;34.80;;;;;;;0.50;84.18;99992.14;1756966;79;20968;-74
2021/12/05 15:33:24;;;;;;;63.10;32.88;;;;;;;0.52;84.17;99998.08;1795598;77;21115;-74
2021/12/05 15:35:52;;;;;;;57.25;33.05;;;;;;;0.51;84.22;100001.48;1787400;77;20932;-74
2021/12/05 15:38:24;;;;;;;54.98;31.37;;;;;;;0.53;84.24;100004.02;1797402;77;21016;-74
2021/12/05 15:40:54;;;;;;;56.92;31.82;;;;;;;0.54;84.25;100009.55;1785891;77;21563;-74
2021/12/05 15:43:23;;;;;;;55.43;30.27;;;;;;;0.56;84.27;100012.97;1800477;77;21317;-74
2021/12/05 15:45:53;;;;;;;55.60;31.85;;;;;;;0.56;84.26;100011.28;1799821;77;20900;-74
2021/12/05 15:48:32;;;;;;;53.87;30.32;;;;;;;0.56;84.26;100011.70;1791564;77;21043;-74
2021/12/05 15:51:03;;;;;;;54.95;29.87;;;;;;;0.57;84.26;100008.31;1793924;77;25040;-74
2021/12/05 15:53:32;;;;;;;57.88;30.10;;;;;;;0.56;84.29;100008.73;1773259;79;20905;-74
2021/12/05 15:56:03;;;;;;;47.17;28.05;;;;;;;0.57;84.28;100011.72;1792182;77;21366;-75
2021/12/05 15:58:40;;;;;;;48.13;27.95;;;;;;;0.57;84.28;100013.41;1804725;77;20905;-74
2021/12/05 16:01:23;;;;;;;45.45;27.50;;;;;;;0.57;84.27;100015.53;1799114;77;20869;-74
2021/12/05 16:03:55;;;;;;;47.55;26.57;;;;;;;0.54;84.26;100009.13;1785627;77;20924;-74
2021/12/05 16:06:32;;;;;;;48.40;27.82;;;;;;;0.52;84.30;100020.14;1729224;80;20959;-74
2021/12/05 16:08:59;;;;;;;48.73;27.62;;;;;;;0.49;84.28;100012.05;1758479;79;20929;-75
2021/12/05 16:11:26;;;;;;;50.50;30.00;;;;;;;0.51;84.35;100015.89;1739027;81;20957;-75
2021/12/05 16:13:54;;;;;;;47.98;27.20;;;;;;;0.49;84.32;100015.87;1758217;79;20897;-74
2021/12/05 16:16:27;;;;;;;47.38;27.22;;;;;;;0.48;84.34;100016.70;1755021;79;20865;-73
2021/12/05 16:19:00;;;;;;;47.08;26.15;;;;;;;0.49;84.38;100021.38;1756085;79;20865;-73
2021/12/05 16:21:36;;;;;;;48.23;27.25;;;;;;;0.49;84.40;100030.27;1761221;79;20885;-73
2021/12/05 16:24:11;;;;;;;46.50;26.23;;;;;;;0.49;84.40;100031.55;1754015;79;20925;-73
2021/12/05 16:26:40;;;;;;;47.10;26.05;;;;;;;0.48;84.36;100038.32;1754871;79;26331;-73
2021/12/05 16:29:16;;;;;;;45.43;26.05;;;;;;;0.48;84.41;100038.32;1759871;79;21355;-73
2021/12/05 16:31:53;;;;;;;51.28;28.07;;;;;;;0.46;84.38;100037.86;1762264;79;20901;-73
2021/12/05 16:34:27;;;;;;;51.33;28.20;;;;;;;0.44;84.38;100036.98;1756220;79;20973;-73
2021/12/05 16:37:07;;;;;;;48.42;27.42;;;;;;;0.45;84.39;100046.31;1778953;77;21095;-73
2021/12/05 16:39:44;;;;;;;48.25;26.52;;;;;;;0.43;84.41;100046.30;1783575;77;20972;-73
2021/12/05 16:42:23;;;;;;;52.45;29.55;;;;;;;0.44;84.46;100047.15;1790889;77;20873;-73
2021/12/05 16:44:55;;;;;;;50.50;27.62;;;;;;;0.44;84.46;100048.42;1787381;77;21405;-73
2021/12/05 16:47:27;;;;;;;46.10;29.05;;;;;;;0.43;84.45;100045.02;1781209;77;20915;-74
2021/12/05 16:49:57;;;;;;;48.68;28.32;;;;;;;0.40;84.41;100043.70;1794804;77;20861;-74